sensor_id;sensor_type;location;lat;lon;timestamp;P1;durP1;ratioP1;P2;durP2;ratioP2
6828;SDS011;17930;48.592;8.868;2022-12-11T00:01:52;16.00;;;7.72;;
6828;SDS011;17930;48.592;8.868;2022-12-11T00:04:18;14.02;;;7.15;;
6828;SDS011;17930;48.592;8.868;2022-12-11T00:06:46;17.30;;;8.45;;
6828;SDS011;17930;48.592;8.868;2022-12-11T00:09:14;15.68;;;8.80;;
6828;SDS011;17930;48.592;8.868;2022-12-11T00:11:41;17.08;;;8.30;;
6828;SDS011;17930;48.592;8.868;2022-12-11T00:14:08;17.48;;;9.05;;
6828;SDS011;17930;48.592;8.868;2022-12-11T00:16:36;15.07;;;8.13;;
6828;SDS011;17930;48.592;8.868;2022-12-11T00:19:03;14.93;;;7.88;;
6828;SDS011;17930;48.592;8.868;2022-12-11T00:21:30;15.10;;;8.43;;
6828;SDS011;17930;48.592;8.868;2022-12-11T00:23:57;15.93;;;7.45;;
6828;SDS011;17930;48.592;8.868;2022-12-11T00:26:24;17.60;;;8.48;;
6828;SDS011;17930;48.592;8.868;2022-12-11T00:28:51;15.23;;;8.02;;
6828;SDS011;17930;48.592;8.868;2022-12-11T00:31:19;13.98;;;7.75;;
6828;SDS011;17930;48.592;8.868;2022-12-11T00:33:48;23.42;;;11.30;;
6828;SDS011;17930;48.592;8.868;2022-12-11T00:36:16;25.30;;;12.65;;
6828;SDS011;17930;48.592;8.868;2022-12-11T00:38:45;19.80;;;9.18;;
6828;SDS011;17930;48.592;8.868;2022-12-11T00:41:12;16.67;;;8.50;;
6828;SDS011;17930;48.592;8.868;2022-12-11T00:43:38;15.75;;;8.18;;
6828;SDS011;17930;48.592;8.868;2022-12-11T00:46:06;16.65;;;8.32;;
6828;SDS011;17930;48.592;8.868;2022-12-11T00:48:33;17.70;;;8.85;;
6828;SDS011;17930;48.592;8.868;2022-12-11T00:51:01;19.70;;;8.68;;
6828;SDS011;17930;48.592;8.868;2022-12-11T00:53:28;19.98;;;9.38;;
6828;SDS011;17930;48.592;8.868;2022-12-11T00:55:55;20.38;;;9.60;;
6828;SDS011;17930;48.592;8.868;2022-12-11T00:58:21;17.73;;;8.77;;
6828;SDS011;17930;48.592;8.868;2022-12-11T01:00:48;23.63;;;10.80;;
6828;SDS011;17930;48.592;8.868;2022-12-11T01:03:15;21.85;;;10.07;;
6828;SDS011;17930;48.592;8.868;2022-12-11T01:05:49;23.00;;;10.75;;
6828;SDS011;17930;48.592;8.868;2022-12-11T01:08:18;23.85;;;10.77;;
6828;SDS011;17930;48.592;8.868;2022-12-11T01:10:45;19.80;;;10.18;;
6828;SDS011;17930;48.592;8.868;2022-12-11T01:13:10;15.77;;;8.47;;
6828;SDS011;17930;48.592;8.868;2022-12-11T01:15:38;23.25;;;10.60;;
6828;SDS011;17930;48.592;8.868;2022-12-11T01:18:06;19.55;;;9.98;;
6828;SDS011;17930;48.592;8.868;2022-12-11T01:20:33;21.85;;;9.95;;
6828;SDS011;17930;48.592;8.868;2022-12-11T01:23:00;20.15;;;9.63;;
6828;SDS011;17930;48.592;8.868;2022-12-11T01:25:28;20.33;;;10.02;;
6828;SDS011;17930;48.592;8.868;2022-12-11T01:27:54;17.58;;;8.85;;
6828;SDS011;17930;48.592;8.868;2022-12-11T01:30:22;16.83;;;9.20;;
6828;SDS011;17930;48.592;8.868;2022-12-11T01:32:50;17.35;;;9.25;;
6828;SDS011;17930;48.592;8.868;2022-12-11T01:35:18;18.00;;;9.00;;
6828;SDS011;17930;48.592;8.868;2022-12-11T01:37:45;17.23;;;9.23;;
6828;SDS011;17930;48.592;8.868;2022-12-11T01:40:14;22.00;;;9.65;;
6828;SDS011;17930;48.592;8.868;2022-12-11T01:42:43;20.35;;;9.82;;
6828;SDS011;17930;48.592;8.868;2022-12-11T01:45:18;17.85;;;9.80;;
6828;SDS011;17930;48.592;8.868;2022-12-11T01:47:50;18.33;;;9.30;;
6828;SDS011;17930;48.592;8.868;2022-12-11T01:50:19;21.23;;;9.75;;
6828;SDS011;17930;48.592;8.868;2022-12-11T01:52:46;15.23;;;8.52;;
6828;SDS011;17930;48.592;8.868;2022-12-11T01:55:14;18.92;;;9.73;;
6828;SDS011;17930;48.592;8.868;2022-12-11T01:57:44;19.92;;;9.25;;
6828;SDS011;17930;48.592;8.868;2022-12-11T02:00:14;19.27;;;9.32;;
6828;SDS011;17930;48.592;8.868;2022-12-11T02:02:41;18.75;;;9.07;;
6828;SDS011;17930;48.592;8.868;2022-12-11T02:05:08;16.33;;;8.77;;
6828;SDS011;17930;48.592;8.868;2022-12-11T02:07:36;15.70;;;8.52;;
6828;SDS011;17930;48.592;8.868;2022-12-11T02:10:06;15.98;;;7.53;;
6828;SDS011;17930;48.592;8.868;2022-12-11T02:12:38;15.85;;;8.02;;
6828;SDS011;17930;48.592;8.868;2022-12-11T02:15:14;16.00;;;8.10;;
6828;SDS011;17930;48.592;8.868;2022-12-11T02:17:47;15.63;;;8.32;;
6828;SDS011;17930;48.592;8.868;2022-12-11T02:20:21;16.02;;;8.32;;
6828;SDS011;17930;48.592;8.868;2022-12-11T02:22:55;17.20;;;8.27;;
6828;SDS011;17930;48.592;8.868;2022-12-11T02:25:29;16.08;;;8.60;;
6828;SDS011;17930;48.592;8.868;2022-12-11T02:30:52;17.08;;;8.48;;
6828;SDS011;17930;48.592;8.868;2022-12-11T02:33:26;20.25;;;8.48;;
6828;SDS011;17930;48.592;8.868;2022-12-11T02:35:58;14.20;;;7.82;;
6828;SDS011;17930;48.592;8.868;2022-12-11T02:38:27;16.23;;;8.57;;
6828;SDS011;17930;48.592;8.868;2022-12-11T02:40:57;17.95;;;7.70;;
6828;SDS011;17930;48.592;8.868;2022-12-11T02:43:28;18.70;;;8.73;;
6828;SDS011;17930;48.592;8.868;2022-12-11T02:45:57;17.10;;;8.15;;
6828;SDS011;17930;48.592;8.868;2022-12-11T02:48:25;13.13;;;7.57;;
6828;SDS011;17930;48.592;8.868;2022-12-11T02:50:53;17.42;;;8.73;;
6828;SDS011;17930;48.592;8.868;2022-12-11T02:53:23;15.32;;;7.93;;
6828;SDS011;17930;48.592;8.868;2022-12-11T02:55:55;15.68;;;7.97;;
6828;SDS011;17930;48.592;8.868;2022-12-11T02:58:28;15.63;;;7.72;;
6828;SDS011;17930;48.592;8.868;2022-12-11T03:00:58;15.30;;;7.53;;
6828;SDS011;17930;48.592;8.868;2022-12-11T03:03:24;17.52;;;7.25;;
6828;SDS011;17930;48.592;8.868;2022-12-11T03:05:54;14.38;;;8.00;;
6828;SDS011;17930;48.592;8.868;2022-12-11T03:08:22;12.43;;;7.43;;
6828;SDS011;17930;48.592;8.868;2022-12-11T03:10:48;16.65;;;7.50;;
6828;SDS011;17930;48.592;8.868;2022-12-11T03:13:16;16.23;;;7.90;;
6828;SDS011;17930;48.592;8.868;2022-12-11T03:15:48;12.77;;;6.97;;
6828;SDS011;17930;48.592;8.868;2022-12-11T03:18:25;16.65;;;8.05;;
6828;SDS011;17930;48.592;8.868;2022-12-11T03:21:01;17.08;;;8.05;;
6828;SDS011;17930;48.592;8.868;2022-12-11T03:23:32;12.68;;;6.72;;
6828;SDS011;17930;48.592;8.868;2022-12-11T03:26:06;15.10;;;6.82;;
6828;SDS011;17930;48.592;8.868;2022-12-11T03:28:38;13.68;;;7.43;;
6828;SDS011;17930;48.592;8.868;2022-12-11T03:31:12;15.55;;;7.72;;
6828;SDS011;17930;48.592;8.868;2022-12-11T03:33:44;14.10;;;7.55;;
6828;SDS011;17930;48.592;8.868;2022-12-11T03:36:17;17.05;;;8.45;;
6828;SDS011;17930;48.592;8.868;2022-12-11T03:38:48;20.40;;;8.82;;
6828;SDS011;17930;48.592;8.868;2022-12-11T03:41:17;20.70;;;8.77;;
6828;SDS011;17930;48.592;8.868;2022-12-11T03:43:47;16.80;;;8.88;;
6828;SDS011;17930;48.592;8.868;2022-12-11T03:46:18;16.25;;;8.50;;
6828;SDS011;17930;48.592;8.868;2022-12-11T03:48:47;15.80;;;8.40;;
6828;SDS011;17930;48.592;8.868;2022-12-11T03:51:15;19.85;;;8.88;;
6828;SDS011;17930;48.592;8.868;2022-12-11T03:53:43;16.73;;;8.48;;
6828;SDS011;17930;48.592;8.868;2022-12-11T03:56:12;18.23;;;8.88;;
6828;SDS011;17930;48.592;8.868;2022-12-11T03:58:41;17.15;;;8.15;;
6828;SDS011;17930;48.592;8.868;2022-12-11T04:01:08;18.48;;;9.05;;
6828;SDS011;17930;48.592;8.868;2022-12-11T04:03:37;16.65;;;8.02;;
6828;SDS011;17930;48.592;8.868;2022-12-11T04:06:04;14.77;;;7.57;;
6828;SDS011;17930;48.592;8.868;2022-12-11T04:08:31;15.90;;;8.15;;
6828;SDS011;17930;48.592;8.868;2022-12-11T04:10:58;14.68;;;7.97;;
6828;SDS011;17930;48.592;8.868;2022-12-11T04:13:43;17.90;;;8.73;;
6828;SDS011;17930;48.592;8.868;2022-12-11T04:16:09;16.75;;;9.52;;
6828;SDS011;17930;48.592;8.868;2022-12-11T04:18:36;17.53;;;8.43;;
6828;SDS011;17930;48.592;8.868;2022-12-11T04:21:21;14.32;;;7.53;;
6828;SDS011;17930;48.592;8.868;2022-12-11T04:24:05;14.55;;;7.40;;
6828;SDS011;17930;48.592;8.868;2022-12-11T04:26:42;15.57;;;8.02;;
6828;SDS011;17930;48.592;8.868;2022-12-11T04:29:09;18.17;;;8.50;;
6828;SDS011;17930;48.592;8.868;2022-12-11T04:31:35;15.43;;;7.88;;
6828;SDS011;17930;48.592;8.868;2022-12-11T04:34:04;17.42;;;7.80;;
6828;SDS011;17930;48.592;8.868;2022-12-11T04:36:30;16.67;;;7.78;;
6828;SDS011;17930;48.592;8.868;2022-12-11T04:38:57;17.67;;;8.93;;
6828;SDS011;17930;48.592;8.868;2022-12-11T04:41:24;15.77;;;8.07;;
6828;SDS011;17930;48.592;8.868;2022-12-11T04:43:50;19.27;;;8.68;;
6828;SDS011;17930;48.592;8.868;2022-12-11T04:46:19;15.68;;;8.43;;
6828;SDS011;17930;48.592;8.868;2022-12-11T04:48:47;16.48;;;7.80;;
6828;SDS011;17930;48.592;8.868;2022-12-11T04:51:16;15.77;;;8.27;;
6828;SDS011;17930;48.592;8.868;2022-12-11T04:53:43;16.35;;;7.82;;
6828;SDS011;17930;48.592;8.868;2022-12-11T04:56:13;16.52;;;7.60;;
6828;SDS011;17930;48.592;8.868;2022-12-11T04:58:41;17.00;;;8.63;;
6828;SDS011;17930;48.592;8.868;2022-12-11T05:01:09;15.00;;;7.53;;
6828;SDS011;17930;48.592;8.868;2022-12-11T05:03:37;21.77;;;8.82;;
6828;SDS011;17930;48.592;8.868;2022-12-11T05:06:04;17.77;;;7.93;;
6828;SDS011;17930;48.592;8.868;2022-12-11T05:08:34;14.85;;;7.72;;
6828;SDS011;17930;48.592;8.868;2022-12-11T05:11:04;16.17;;;8.15;;
6828;SDS011;17930;48.592;8.868;2022-12-11T05:13:32;18.42;;;8.85;;
6828;SDS011;17930;48.592;8.868;2022-12-11T05:15:58;15.82;;;8.00;;
6828;SDS011;17930;48.592;8.868;2022-12-11T05:18:25;15.80;;;7.63;;
6828;SDS011;17930;48.592;8.868;2022-12-11T05:20:55;21.27;;;8.07;;
6828;SDS011;17930;48.592;8.868;2022-12-11T05:23:23;15.80;;;8.30;;
6828;SDS011;17930;48.592;8.868;2022-12-11T05:25:51;15.25;;;8.23;;
6828;SDS011;17930;48.592;8.868;2022-12-11T05:28:19;17.70;;;7.90;;
6828;SDS011;17930;48.592;8.868;2022-12-11T05:30:46;15.30;;;7.47;;
6828;SDS011;17930;48.592;8.868;2022-12-11T05:33:13;16.23;;;7.60;;
6828;SDS011;17930;48.592;8.868;2022-12-11T05:35:45;14.43;;;7.53;;
6828;SDS011;17930;48.592;8.868;2022-12-11T05:38:12;15.50;;;7.70;;
6828;SDS011;17930;48.592;8.868;2022-12-11T05:40:39;14.07;;;7.80;;
6828;SDS011;17930;48.592;8.868;2022-12-11T05:43:07;15.65;;;7.78;;
6828;SDS011;17930;48.592;8.868;2022-12-11T05:45:33;18.42;;;7.55;;
6828;SDS011;17930;48.592;8.868;2022-12-11T05:48:00;18.88;;;8.15;;
6828;SDS011;17930;48.592;8.868;2022-12-11T05:50:27;14.38;;;7.18;;
6828;SDS011;17930;48.592;8.868;2022-12-11T05:52:53;16.42;;;7.75;;
6828;SDS011;17930;48.592;8.868;2022-12-11T05:55:20;14.07;;;7.45;;
6828;SDS011;17930;48.592;8.868;2022-12-11T05:57:47;15.43;;;7.22;;
6828;SDS011;17930;48.592;8.868;2022-12-11T06:00:15;16.10;;;7.75;;
6828;SDS011;17930;48.592;8.868;2022-12-11T06:02:42;14.45;;;7.22;;
6828;SDS011;17930;48.592;8.868;2022-12-11T06:05:08;14.48;;;6.53;;
6828;SDS011;17930;48.592;8.868;2022-12-11T06:07:35;16.92;;;7.30;;
6828;SDS011;17930;48.592;8.868;2022-12-11T06:10:02;11.32;;;6.53;;
6828;SDS011;17930;48.592;8.868;2022-12-11T06:12:29;14.00;;;8.30;;
6828;SDS011;17930;48.592;8.868;2022-12-11T06:14:56;12.45;;;6.75;;
6828;SDS011;17930;48.592;8.868;2022-12-11T06:17:24;12.10;;;6.30;;
6828;SDS011;17930;48.592;8.868;2022-12-11T06:19:51;14.05;;;6.70;;
6828;SDS011;17930;48.592;8.868;2022-12-11T06:22:18;13.27;;;6.55;;
6828;SDS011;17930;48.592;8.868;2022-12-11T06:24:45;13.30;;;6.47;;
6828;SDS011;17930;48.592;8.868;2022-12-11T06:27:12;12.80;;;7.05;;
6828;SDS011;17930;48.592;8.868;2022-12-11T06:29:39;14.13;;;6.80;;
6828;SDS011;17930;48.592;8.868;2022-12-11T06:32:05;13.05;;;5.82;;
6828;SDS011;17930;48.592;8.868;2022-12-11T06:34:33;13.57;;;7.50;;
6828;SDS011;17930;48.592;8.868;2022-12-11T06:37:00;15.65;;;6.65;;
6828;SDS011;17930;48.592;8.868;2022-12-11T06:39:27;12.88;;;7.22;;
6828;SDS011;17930;48.592;8.868;2022-12-11T06:41:53;15.20;;;6.55;;
6828;SDS011;17930;48.592;8.868;2022-12-11T06:44:20;17.15;;;7.78;;
6828;SDS011;17930;48.592;8.868;2022-12-11T06:46:47;15.68;;;7.25;;
6828;SDS011;17930;48.592;8.868;2022-12-11T06:49:13;15.77;;;7.18;;
6828;SDS011;17930;48.592;8.868;2022-12-11T06:51:41;12.77;;;6.47;;
6828;SDS011;17930;48.592;8.868;2022-12-11T06:54:08;15.63;;;7.47;;
6828;SDS011;17930;48.592;8.868;2022-12-11T06:56:35;14.02;;;7.50;;
6828;SDS011;17930;48.592;8.868;2022-12-11T06:59:01;16.27;;;7.78;;
6828;SDS011;17930;48.592;8.868;2022-12-11T07:01:28;14.82;;;6.95;;
6828;SDS011;17930;48.592;8.868;2022-12-11T07:03:56;16.10;;;7.40;;
6828;SDS011;17930;48.592;8.868;2022-12-11T07:06:24;15.02;;;8.00;;
6828;SDS011;17930;48.592;8.868;2022-12-11T07:08:54;14.88;;;7.32;;
6828;SDS011;17930;48.592;8.868;2022-12-11T07:11:21;19.02;;;7.82;;
6828;SDS011;17930;48.592;8.868;2022-12-11T07:13:48;13.75;;;7.20;;
6828;SDS011;17930;48.592;8.868;2022-12-11T07:16:15;19.23;;;8.80;;
6828;SDS011;17930;48.592;8.868;2022-12-11T07:18:45;18.45;;;7.90;;
6828;SDS011;17930;48.592;8.868;2022-12-11T07:21:13;22.52;;;10.82;;
6828;SDS011;17930;48.592;8.868;2022-12-11T07:23:40;22.15;;;9.68;;
6828;SDS011;17930;48.592;8.868;2022-12-11T07:26:09;17.60;;;8.38;;
6828;SDS011;17930;48.592;8.868;2022-12-11T07:28:37;16.63;;;9.57;;
6828;SDS011;17930;48.592;8.868;2022-12-11T07:31:04;20.52;;;8.88;;
6828;SDS011;17930;48.592;8.868;2022-12-11T07:33:31;21.73;;;8.40;;
6828;SDS011;17930;48.592;8.868;2022-12-11T07:35:59;21.52;;;8.60;;
6828;SDS011;17930;48.592;8.868;2022-12-11T07:38:27;16.77;;;9.00;;
6828;SDS011;17930;48.592;8.868;2022-12-11T07:40:54;21.50;;;8.88;;
6828;SDS011;17930;48.592;8.868;2022-12-11T07:43:22;25.70;;;9.30;;
6828;SDS011;17930;48.592;8.868;2022-12-11T07:45:49;16.95;;;9.10;;
6828;SDS011;17930;48.592;8.868;2022-12-11T07:48:15;20.88;;;9.50;;
6828;SDS011;17930;48.592;8.868;2022-12-11T07:50:42;24.02;;;9.57;;
6828;SDS011;17930;48.592;8.868;2022-12-11T07:53:09;20.20;;;9.68;;
6828;SDS011;17930;48.592;8.868;2022-12-11T07:55:36;21.17;;;9.10;;
6828;SDS011;17930;48.592;8.868;2022-12-11T07:58:02;21.95;;;9.25;;
6828;SDS011;17930;48.592;8.868;2022-12-11T08:00:31;18.33;;;9.13;;
6828;SDS011;17930;48.592;8.868;2022-12-11T08:02:57;22.95;;;9.25;;
6828;SDS011;17930;48.592;8.868;2022-12-11T08:05:24;22.45;;;9.25;;
6828;SDS011;17930;48.592;8.868;2022-12-11T08:07:51;18.23;;;9.15;;
6828;SDS011;17930;48.592;8.868;2022-12-11T08:10:18;23.05;;;10.93;;
6828;SDS011;17930;48.592;8.868;2022-12-11T08:12:44;19.48;;;9.20;;
6828;SDS011;17930;48.592;8.868;2022-12-11T08:15:11;19.60;;;10.35;;
6828;SDS011;17930;48.592;8.868;2022-12-11T08:17:39;23.60;;;10.57;;
6828;SDS011;17930;48.592;8.868;2022-12-11T08:20:06;16.55;;;9.27;;
6828;SDS011;17930;48.592;8.868;2022-12-11T08:22:33;16.33;;;8.98;;
6828;SDS011;17930;48.592;8.868;2022-12-11T08:25:00;17.10;;;8.70;;
6828;SDS011;17930;48.592;8.868;2022-12-11T08:27:27;11.85;;;7.35;;
6828;SDS011;17930;48.592;8.868;2022-12-11T08:29:53;16.42;;;7.60;;
6828;SDS011;17930;48.592;8.868;2022-12-11T08:32:20;14.63;;;7.40;;
6828;SDS011;17930;48.592;8.868;2022-12-11T08:34:49;14.98;;;8.50;;
6828;SDS011;17930;48.592;8.868;2022-12-11T08:37:16;16.23;;;7.55;;
6828;SDS011;17930;48.592;8.868;2022-12-11T08:39:43;13.50;;;6.97;;
6828;SDS011;17930;48.592;8.868;2022-12-11T08:42:11;16.23;;;8.13;;
6828;SDS011;17930;48.592;8.868;2022-12-11T08:44:38;16.83;;;8.68;;
6828;SDS011;17930;48.592;8.868;2022-12-11T08:47:04;16.70;;;7.90;;
6828;SDS011;17930;48.592;8.868;2022-12-11T08:49:34;16.65;;;8.50;;
6828;SDS011;17930;48.592;8.868;2022-12-11T08:52:02;17.38;;;8.50;;
6828;SDS011;17930;48.592;8.868;2022-12-11T08:54:30;17.17;;;7.38;;
6828;SDS011;17930;48.592;8.868;2022-12-11T08:56:56;15.48;;;8.55;;
6828;SDS011;17930;48.592;8.868;2022-12-11T08:59:23;13.70;;;7.13;;
6828;SDS011;17930;48.592;8.868;2022-12-11T09:01:50;18.98;;;8.95;;
6828;SDS011;17930;48.592;8.868;2022-12-11T09:04:17;18.20;;;8.07;;
6828;SDS011;17930;48.592;8.868;2022-12-11T09:06:43;13.88;;;7.93;;
6828;SDS011;17930;48.592;8.868;2022-12-11T09:09:11;14.40;;;7.72;;
6828;SDS011;17930;48.592;8.868;2022-12-11T09:11:39;19.17;;;8.48;;
6828;SDS011;17930;48.592;8.868;2022-12-11T09:14:06;19.25;;;8.70;;
6828;SDS011;17930;48.592;8.868;2022-12-11T09:16:33;16.02;;;7.88;;
6828;SDS011;17930;48.592;8.868;2022-12-11T09:19:05;19.65;;;8.38;;
6828;SDS011;17930;48.592;8.868;2022-12-11T09:21:33;21.05;;;8.95;;
6828;SDS011;17930;48.592;8.868;2022-12-11T09:24:00;17.08;;;9.10;;
6828;SDS011;17930;48.592;8.868;2022-12-11T09:26:28;19.10;;;9.35;;
6828;SDS011;17930;48.592;8.868;2022-12-11T09:28:55;16.02;;;8.85;;
6828;SDS011;17930;48.592;8.868;2022-12-11T09:31:24;16.13;;;8.10;;
6828;SDS011;17930;48.592;8.868;2022-12-11T09:33:53;17.90;;;8.80;;
6828;SDS011;17930;48.592;8.868;2022-12-11T09:36:21;18.77;;;8.73;;
6828;SDS011;17930;48.592;8.868;2022-12-11T09:38:49;18.55;;;8.52;;
6828;SDS011;17930;48.592;8.868;2022-12-11T09:41:22;16.00;;;8.18;;
6828;SDS011;17930;48.592;8.868;2022-12-11T09:43:58;15.70;;;8.88;;
6828;SDS011;17930;48.592;8.868;2022-12-11T09:46:31;18.33;;;9.35;;
6828;SDS011;17930;48.592;8.868;2022-12-11T09:49:00;18.25;;;8.35;;
6828;SDS011;17930;48.592;8.868;2022-12-11T09:51:29;15.27;;;8.40;;
6828;SDS011;17930;48.592;8.868;2022-12-11T09:54:02;18.38;;;8.45;;
6828;SDS011;17930;48.592;8.868;2022-12-11T09:56:32;17.20;;;8.43;;
6828;SDS011;17930;48.592;8.868;2022-12-11T09:59:04;16.75;;;8.18;;
6828;SDS011;17930;48.592;8.868;2022-12-11T10:01:43;15.68;;;7.63;;
6828;SDS011;17930;48.592;8.868;2022-12-11T10:04:19;18.17;;;8.35;;
6828;SDS011;17930;48.592;8.868;2022-12-11T10:07:00;21.48;;;8.52;;
6828;SDS011;17930;48.592;8.868;2022-12-11T10:09:37;21.17;;;8.68;;
6828;SDS011;17930;48.592;8.868;2022-12-11T10:12:16;20.00;;;9.23;;
6828;SDS011;17930;48.592;8.868;2022-12-11T10:15:04;18.73;;;9.43;;
6828;SDS011;17930;48.592;8.868;2022-12-11T10:17:39;19.27;;;9.27;;
6828;SDS011;17930;48.592;8.868;2022-12-11T10:20:13;17.42;;;8.52;;
6828;SDS011;17930;48.592;8.868;2022-12-11T10:22:45;16.92;;;8.63;;
6828;SDS011;17930;48.592;8.868;2022-12-11T10:25:15;17.15;;;8.68;;
6828;SDS011;17930;48.592;8.868;2022-12-11T10:27:47;17.23;;;8.18;;
6828;SDS011;17930;48.592;8.868;2022-12-11T10:30:15;17.75;;;9.18;;
6828;SDS011;17930;48.592;8.868;2022-12-11T10:32:49;17.08;;;8.60;;
6828;SDS011;17930;48.592;8.868;2022-12-11T10:35:19;16.20;;;8.27;;
6828;SDS011;17930;48.592;8.868;2022-12-11T10:37:54;17.85;;;8.55;;
6828;SDS011;17930;48.592;8.868;2022-12-11T10:40:23;15.57;;;8.65;;
6828;SDS011;17930;48.592;8.868;2022-12-11T10:42:55;16.65;;;8.30;;
6828;SDS011;17930;48.592;8.868;2022-12-11T10:45:22;15.40;;;7.10;;
6828;SDS011;17930;48.592;8.868;2022-12-11T10:47:50;17.35;;;9.13;;
6828;SDS011;17930;48.592;8.868;2022-12-11T10:50:31;16.38;;;8.65;;
6828;SDS011;17930;48.592;8.868;2022-12-11T10:52:58;17.67;;;8.85;;
6828;SDS011;17930;48.592;8.868;2022-12-11T10:55:26;16.55;;;8.40;;
6828;SDS011;17930;48.592;8.868;2022-12-11T10:57:58;17.80;;;8.73;;
6828;SDS011;17930;48.592;8.868;2022-12-11T11:00:29;12.90;;;7.72;;
6828;SDS011;17930;48.592;8.868;2022-12-11T11:02:59;17.92;;;8.85;;
6828;SDS011;17930;48.592;8.868;2022-12-11T11:05:28;19.55;;;8.75;;
6828;SDS011;17930;48.592;8.868;2022-12-11T11:08:07;17.73;;;8.75;;
6828;SDS011;17930;48.592;8.868;2022-12-11T11:10:48;20.25;;;9.85;;
6828;SDS011;17930;48.592;8.868;2022-12-11T11:13:19;16.70;;;7.75;;
6828;SDS011;17930;48.592;8.868;2022-12-11T11:15:46;17.25;;;8.82;;
6828;SDS011;17930;48.592;8.868;2022-12-11T11:18:15;17.33;;;8.52;;
6828;SDS011;17930;48.592;8.868;2022-12-11T11:20:50;16.30;;;8.30;;
6828;SDS011;17930;48.592;8.868;2022-12-11T11:23:17;17.92;;;9.20;;
6828;SDS011;17930;48.592;8.868;2022-12-11T11:25:49;19.10;;;8.98;;
6828;SDS011;17930;48.592;8.868;2022-12-11T11:28:20;20.48;;;9.98;;
6828;SDS011;17930;48.592;8.868;2022-12-11T11:30:56;19.40;;;9.15;;
6828;SDS011;17930;48.592;8.868;2022-12-11T11:33:27;18.58;;;10.13;;
6828;SDS011;17930;48.592;8.868;2022-12-11T11:35:56;17.20;;;9.50;;
6828;SDS011;17930;48.592;8.868;2022-12-11T11:38:28;18.05;;;8.50;;
6828;SDS011;17930;48.592;8.868;2022-12-11T11:40:59;16.33;;;8.20;;
6828;SDS011;17930;48.592;8.868;2022-12-11T11:43:37;19.08;;;9.45;;
6828;SDS011;17930;48.592;8.868;2022-12-11T11:46:11;17.75;;;9.77;;
6828;SDS011;17930;48.592;8.868;2022-12-11T11:48:48;20.92;;;9.98;;
6828;SDS011;17930;48.592;8.868;2022-12-11T11:51:26;20.45;;;11.00;;
6828;SDS011;17930;48.592;8.868;2022-12-11T11:53:59;18.20;;;8.75;;
6828;SDS011;17930;48.592;8.868;2022-12-11T11:56:30;17.33;;;8.93;;
6828;SDS011;17930;48.592;8.868;2022-12-11T11:59:04;16.98;;;9.23;;
6828;SDS011;17930;48.592;8.868;2022-12-11T12:01:40;20.92;;;9.43;;
6828;SDS011;17930;48.592;8.868;2022-12-11T12:04:07;17.40;;;8.88;;
6828;SDS011;17930;48.592;8.868;2022-12-11T12:06:38;17.92;;;9.13;;
6828;SDS011;17930;48.592;8.868;2022-12-11T12:09:21;19.25;;;10.85;;
6828;SDS011;17930;48.592;8.868;2022-12-11T12:11:59;17.92;;;10.02;;
6828;SDS011;17930;48.592;8.868;2022-12-11T12:14:37;22.83;;;11.25;;
6828;SDS011;17930;48.592;8.868;2022-12-11T12:17:19;19.17;;;9.23;;
6828;SDS011;17930;48.592;8.868;2022-12-11T12:19:54;20.83;;;10.35;;
6828;SDS011;17930;48.592;8.868;2022-12-11T12:22:35;16.90;;;9.50;;
6828;SDS011;17930;48.592;8.868;2022-12-11T12:25:14;19.13;;;9.10;;
6828;SDS011;17930;48.592;8.868;2022-12-11T12:27:49;16.35;;;8.38;;
6828;SDS011;17930;48.592;8.868;2022-12-11T12:30:23;20.38;;;11.73;;
6828;SDS011;17930;48.592;8.868;2022-12-11T12:32:55;14.55;;;8.52;;
6828;SDS011;17930;48.592;8.868;2022-12-11T12:35:36;15.40;;;8.77;;
6828;SDS011;17930;48.592;8.868;2022-12-11T12:38:06;19.30;;;9.80;;
6828;SDS011;17930;48.592;8.868;2022-12-11T12:40:44;17.45;;;8.35;;
6828;SDS011;17930;48.592;8.868;2022-12-11T12:43:28;16.23;;;8.77;;
6828;SDS011;17930;48.592;8.868;2022-12-11T12:46:19;13.85;;;7.97;;
6828;SDS011;17930;48.592;8.868;2022-12-11T12:48:54;16.83;;;8.27;;
6828;SDS011;17930;48.592;8.868;2022-12-11T12:51:24;15.32;;;7.53;;
6828;SDS011;17930;48.592;8.868;2022-12-11T12:53:53;17.58;;;9.02;;
6828;SDS011;17930;48.592;8.868;2022-12-11T12:56:22;13.55;;;8.32;;
6828;SDS011;17930;48.592;8.868;2022-12-11T12:58:50;16.23;;;8.65;;
6828;SDS011;17930;48.592;8.868;2022-12-11T13:01:19;16.02;;;7.97;;
6828;SDS011;17930;48.592;8.868;2022-12-11T13:03:48;16.70;;;8.73;;
6828;SDS011;17930;48.592;8.868;2022-12-11T13:06:32;17.63;;;8.52;;
6828;SDS011;17930;48.592;8.868;2022-12-11T13:09:14;18.10;;;8.48;;
6828;SDS011;17930;48.592;8.868;2022-12-11T13:11:43;14.63;;;7.93;;
6828;SDS011;17930;48.592;8.868;2022-12-11T13:14:21;17.77;;;8.10;;
6828;SDS011;17930;48.592;8.868;2022-12-11T13:17:05;15.43;;;8.57;;
6828;SDS011;17930;48.592;8.868;2022-12-11T13:19:47;18.15;;;9.43;;
6828;SDS011;17930;48.592;8.868;2022-12-11T13:22:23;17.90;;;8.43;;
6828;SDS011;17930;48.592;8.868;2022-12-11T13:24:56;18.35;;;8.20;;
6828;SDS011;17930;48.592;8.868;2022-12-11T13:27:26;16.77;;;8.85;;
6828;SDS011;17930;48.592;8.868;2022-12-11T13:30:03;17.90;;;8.40;;
6828;SDS011;17930;48.592;8.868;2022-12-11T13:32:33;18.83;;;8.60;;
6828;SDS011;17930;48.592;8.868;2022-12-11T13:35:03;17.92;;;8.55;;
6828;SDS011;17930;48.592;8.868;2022-12-11T13:37:32;19.48;;;8.80;;
6828;SDS011;17930;48.592;8.868;2022-12-11T13:40:02;15.23;;;8.02;;
6828;SDS011;17930;48.592;8.868;2022-12-11T13:42:34;18.88;;;7.88;;
6828;SDS011;17930;48.592;8.868;2022-12-11T13:45:06;14.88;;;7.97;;
6828;SDS011;17930;48.592;8.868;2022-12-11T13:47:44;18.30;;;9.45;;
6828;SDS011;17930;48.592;8.868;2022-12-11T13:50:13;17.10;;;8.45;;
6828;SDS011;17930;48.592;8.868;2022-12-11T13:52:51;18.67;;;8.80;;
6828;SDS011;17930;48.592;8.868;2022-12-11T13:55:21;16.40;;;8.60;;
6828;SDS011;17930;48.592;8.868;2022-12-11T13:57:50;17.27;;;8.25;;
6828;SDS011;17930;48.592;8.868;2022-12-11T14:00:18;17.60;;;7.90;;
6828;SDS011;17930;48.592;8.868;2022-12-11T14:02:48;17.15;;;8.50;;
6828;SDS011;17930;48.592;8.868;2022-12-11T14:05:17;16.02;;;8.68;;
6828;SDS011;17930;48.592;8.868;2022-12-11T14:07:45;18.27;;;8.05;;
6828;SDS011;17930;48.592;8.868;2022-12-11T14:10:15;15.65;;;8.02;;
6828;SDS011;17930;48.592;8.868;2022-12-11T14:12:44;16.35;;;8.68;;
6828;SDS011;17930;48.592;8.868;2022-12-11T14:15:16;17.77;;;8.52;;
6828;SDS011;17930;48.592;8.868;2022-12-11T14:17:43;12.73;;;7.50;;
6828;SDS011;17930;48.592;8.868;2022-12-11T14:20:15;17.88;;;8.55;;
6828;SDS011;17930;48.592;8.868;2022-12-11T14:22:44;13.20;;;7.72;;
6828;SDS011;17930;48.592;8.868;2022-12-11T14:25:21;17.23;;;7.53;;
6828;SDS011;17930;48.592;8.868;2022-12-11T14:27:50;16.35;;;8.15;;
6828;SDS011;17930;48.592;8.868;2022-12-11T14:30:22;18.73;;;7.97;;
6828;SDS011;17930;48.592;8.868;2022-12-11T14:32:50;12.93;;;7.40;;
6828;SDS011;17930;48.592;8.868;2022-12-11T14:35:23;18.25;;;7.93;;
6828;SDS011;17930;48.592;8.868;2022-12-11T14:37:52;16.13;;;8.63;;
6828;SDS011;17930;48.592;8.868;2022-12-11T14:40:21;15.30;;;7.68;;
6828;SDS011;17930;48.592;8.868;2022-12-11T14:42:51;15.65;;;8.25;;
6828;SDS011;17930;48.592;8.868;2022-12-11T14:45:23;15.80;;;8.52;;
6828;SDS011;17930;48.592;8.868;2022-12-11T14:47:57;16.10;;;8.45;;
6828;SDS011;17930;48.592;8.868;2022-12-11T14:50:28;19.80;;;8.85;;
6828;SDS011;17930;48.592;8.868;2022-12-11T14:53:02;20.30;;;9.52;;
6828;SDS011;17930;48.592;8.868;2022-12-11T14:55:33;23.63;;;9.77;;
6828;SDS011;17930;48.592;8.868;2022-12-11T14:58:04;20.88;;;10.02;;
6828;SDS011;17930;48.592;8.868;2022-12-11T15:00:38;20.55;;;10.27;;
6828;SDS011;17930;48.592;8.868;2022-12-11T15:03:06;18.10;;;9.52;;
6828;SDS011;17930;48.592;8.868;2022-12-11T15:05:49;15.30;;;8.23;;
6828;SDS011;17930;48.592;8.868;2022-12-11T15:08:18;17.55;;;8.95;;